OPLA/LHE METAR and TAF weather

Enter ICAO airport designator
Station Type Date Time Source
OPLA METAR 2020/09/25 05:25 UTC NOAA

OPLA 250525Z 19005KT 4000 FU NSC 33/22 Q1004 RMK QFE977 RMK A29.67


Station Type Date Time Source
OPLA Decoded METAR 2020/09/25 05:25 UTC NOAA

Lahore Airport, Pakistan (OPLA) 31-31N 074-24E 217M
Sep 25, 2020 - 01:25 AM EDT / 2020.09.25 0525 UTC
Wind: from the S (190 degrees) at 6 MPH (5 KT):0
Visibility: 2 mile(s):0
Weather: smoke
Temperature: 91 F (33 C)
Heat index: 97.5 F (36.4 C):1
Dew Point: 71 F (22 C)
Relative Humidity: 52%
Pressure (altimeter): 29.65 in. Hg (1004 hPa)
ob: OPLA 250525Z 19005KT 4000 FU NSC 33/22 Q1004 RMK QFE977 RMK A29.67
cycle: 5

Station Type Date Time Source
OPLA TAF 2020/09/25 06:12 UTC NOAA

TAF OPLA 250345Z 2506/2612 22008KT 5000 HZ FEW100 TX37/2510Z TN26/2600Z PROB30
TEMPO 2508/2511 30015G25KT
FM251300 15003KT 4000 FU NSC
BECMG 2601/2604 2000 BR
FM260400 15006KT 4000 FU FEW040 SCT100

Example: see airport list